Roscrea, Ireland
Current Conditions -  °F | °C
As of 7:00 PM on Thursday 30 Oct 2014 (Local Time) from EINN Reporting Station
Broken Clouds Broken Clouds  
Wind Chill: 61°   Ceiling: 1800
Heat Index: 61°   Visibility: 6mi
Dew Point: 57°   Wind: 15mph
Humidity: 88%   Direction: 140°SE
Pressure: 29.74"   Gusts: NA
Location:  52.96°N, 7.81°W
Report Text: EINN 301800Z 14013KT 9999 SCT014 BKN018 16/14 Q1007 NOSIG
Loading
Personal Weather Stations






























Interactive Weather Map
Tropical Storm Tracking
New forecast layout! Learn more

10-Day Weather Forecast

Advertisements
Track Severe Weather on mobile